Time;durP1;ratioP1;P1;durP2;ratioP2;P2;SDS_P1;SDS_P2;PMS_P1;PMS_P2;Temp;Humidity;BMP_temperature;BMP_pressure;BME280_temperature;BME280_humidity;BME280_pressure;Samples;Min_cycle;Max_cycle;Signal;HPM_P1;HPM_P2
2022/03/23 00:00:26;;;;;;;14.00;7.85;;;;;;;9.22;30.34;100301.19;4408444;32;20099;-70
2022/03/23 00:02:53;;;;;;;10.55;6.37;;;;;;;9.07;30.68;100292.47;4408379;32;20106;-70
2022/03/23 00:05:21;;;;;;;13.10;6.82;;;;;;;9.25;29.25;100293.16;4408094;32;20085;-70
2022/03/23 00:07:49;;;;;;;12.40;6.35;;;;;;;9.33;28.39;100293.53;4408547;32;20144;-70
2022/03/23 00:10:17;;;;;;;12.70;6.62;;;;;;;9.86;27.34;100290.38;4408106;32;20148;-70
2022/03/23 00:12:44;;;;;;;13.07;6.90;;;;;;;9.84;27.15;100284.37;4408431;32;20117;-70
2022/03/23 00:15:12;;;;;;;13.15;6.55;;;;;;;9.77;27.34;100281.31;4408208;32;20090;-70
2022/03/23 00:17:42;;;;;;;14.30;7.05;;;;;;;9.67;27.44;100285.41;4408462;32;20405;-70
2022/03/23 00:20:11;;;;;;;11.18;6.30;;;;;;;9.50;27.80;100278.59;4407969;32;20149;-70
2022/03/23 00:22:38;;;;;;;12.25;6.20;;;;;;;9.64;27.47;100281.19;4408514;32;20085;-70
2022/03/23 00:25:08;;;;;;;15.60;6.37;;;;;;;10.01;26.81;100280.69;4408104;32;20518;-70
2022/03/23 00:27:35;;;;;;;12.10;6.87;;;;;;;10.24;26.59;100276.66;4408199;32;20487;-70
2022/03/23 00:30:03;;;;;;;9.02;5.85;;;;;;;10.32;26.63;100278.78;4408080;32;20114;-70
2022/03/23 00:32:31;;;;;;;13.70;6.25;;;;;;;10.09;26.79;100276.66;4408263;32;20102;-70
2022/03/23 00:35:01;;;;;;;12.52;6.60;;;;;;;10.22;26.67;100274.13;4408294;32;20085;-70
2022/03/23 00:37:28;;;;;;;12.02;6.55;;;;;;;10.18;26.82;100274.44;4408142;32;20129;-70
2022/03/23 00:39:56;;;;;;;10.80;6.32;;;;;;;10.26;26.66;100265.13;4408097;32;20098;-70
2022/03/23 00:42:23;;;;;;;11.60;6.55;;;;;;;10.27;26.68;100271.22;4407696;32;20090;-70
2022/03/23 00:44:53;;;;;;;14.50;6.60;;;;;;;10.14;26.83;100265.91;4407866;32;20534;-70
2022/03/23 00:47:22;;;;;;;10.68;6.43;;;;;;;10.33;26.46;100276.09;4408148;32;20094;-70
2022/03/23 00:49:49;;;;;;;12.88;6.32;;;;;;;10.33;26.50;100265.62;4407978;32;20098;-70
2022/03/23 00:52:16;;;;;;;13.70;6.45;;;;;;;10.06;26.92;100268.19;4407810;32;20498;-70
2022/03/23 00:54:44;;;;;;;14.07;6.57;;;;;;;10.15;26.86;100264.16;4407940;32;20175;-70
2022/03/23 00:57:11;;;;;;;11.23;6.75;;;;;;;10.11;26.96;100264.34;4408122;32;20108;-70
2022/03/23 00:59:38;;;;;;;16.45;7.05;;;;;;;10.13;26.87;100265.06;4407997;32;20102;-70
2022/03/23 01:02:07;;;;;;;11.45;6.97;;;;;;;10.04;27.03;100262.22;4406752;32;20102;-70
2022/03/23 01:04:34;;;;;;;12.75;6.68;;;;;;;10.02;27.13;100256.22;4407022;32;20102;-70
2022/03/23 01:07:01;;;;;;;12.13;6.62;;;;;;;10.04;27.18;100251.75;4407814;32;20125;-70
2022/03/23 01:09:28;;;;;;;12.75;7.25;;;;;;;9.84;27.40;100263.44;4407830;32;20140;-70
2022/03/23 01:11:57;;;;;;;11.20;6.90;;;;;;;9.81;27.47;100259.25;4406804;32;20098;-70
2022/03/23 01:14:25;;;;;;;15.13;7.85;;;;;;;9.92;27.26;100256.78;4407624;32;20089;-70
2022/03/23 01:16:53;;;;;;;11.60;6.80;;;;;;;9.89;27.53;100256.16;4408072;32;20461;-70
2022/03/23 01:19:25;;;;;;;14.93;6.68;;;;;;;9.85;27.54;100259.91;4408085;32;20120;-70
2022/03/23 01:21:53;;;;;;;13.55;7.12;;;;;;;9.86;27.60;100251.13;4407994;32;20140;-70
2022/03/23 01:24:20;;;;;;;13.57;7.00;;;;;;;9.94;27.55;100244.44;4407895;32;20116;-70
2022/03/23 01:26:47;;;;;;;11.68;6.75;;;;;;;9.84;27.58;100252.97;4407721;32;20349;-70
2022/03/23 01:29:15;;;;;;;13.10;7.32;;;;;;;9.83;27.63;100253.91;4407917;32;20182;-70
2022/03/23 01:31:42;;;;;;;10.68;6.57;;;;;;;9.91;27.63;100249.03;4407853;32;20674;-70
2022/03/23 01:34:09;;;;;;;13.85;6.65;;;;;;;10.04;27.39;100244.72;4407993;32;20117;-70
2022/03/23 01:36:36;;;;;;;11.82;6.65;;;;;;;9.63;28.20;100245.53;4407734;32;20082;-70
2022/03/23 01:39:05;;;;;;;13.02;6.70;;;;;;;9.73;27.90;100241.38;4407376;32;20124;-70
2022/03/23 01:41:35;;;;;;;13.90;6.75;;;;;;;9.76;28.01;100238.59;4407696;32;20152;-70
2022/03/23 01:44:19;;;;;;;13.60;7.20;;;;;;;9.82;27.90;100236.53;4407661;32;20164;-70
2022/03/23 01:47:01;;;;;;;14.23;6.78;;;;;;;9.71;28.13;100242.44;4407637;32;20101;-70
2022/03/23 01:49:29;;;;;;;12.52;6.62;;;;;;;9.80;28.12;100243.66;4407471;32;20083;-70
2022/03/23 01:51:57;;;;;;;13.73;6.55;;;;;;;9.68;28.21;100243.47;4407815;32;20477;-70
2022/03/23 01:54:24;;;;;;;12.07;6.70;;;;;;;9.80;28.01;100235.78;4407492;32;20098;-70
2022/03/23 01:56:52;;;;;;;10.63;6.05;;;;;;;9.58;28.38;100244.94;4407503;32;20151;-70
2022/03/23 01:59:19;;;;;;;15.32;7.35;;;;;;;9.91;28.10;100235.94;4407449;32;20090;-70
2022/03/23 02:01:47;;;;;;;15.13;7.53;;;;;;;9.87;28.11;100243.16;4407637;32;20124;-70
2022/03/23 02:04:16;;;;;;;13.80;6.93;;;;;;;9.90;28.04;100237.72;4407029;32;20120;-70
2022/03/23 02:06:43;;;;;;;11.80;6.93;;;;;;;9.81;28.20;100242.69;4407222;32;20378;-70
2022/03/23 02:09:11;;;;;;;13.30;6.62;;;;;;;9.72;28.43;100236.25;4407703;32;20098;-70
2022/03/23 02:11:41;;;;;;;16.60;7.15;;;;;;;9.57;28.75;100238.88;4407546;32;20136;-70
2022/03/23 02:14:11;;;;;;;11.75;7.57;;;;;;;9.60;28.99;100243.09;4405524;32;20460;-70
2022/03/23 02:16:46;;;;;;;11.55;7.00;;;;;;;9.72;28.59;100229.25;4407659;32;20432;-71
2022/03/23 02:19:13;;;;;;;11.88;6.80;;;;;;;9.68;28.84;100238.22;4407582;32;20098;-70
2022/03/23 02:21:48;;;;;;;13.80;7.70;;;;;;;9.65;28.85;100238.41;4407558;32;20159;-70
2022/03/23 02:24:16;;;;;;;12.40;7.37;;;;;;;9.65;28.88;100238.41;4407470;32;20089;-70
2022/03/23 02:26:43;;;;;;;14.25;6.82;;;;;;;9.62;28.96;100240.37;4406933;32;20114;-71
2022/03/23 02:29:10;;;;;;;15.20;6.65;;;;;;;9.59;29.00;100238.78;4406888;32;20527;-70
2022/03/23 02:31:38;;;;;;;12.32;6.30;;;;;;;9.71;28.86;100235.41;4407064;32;20154;-70
2022/03/23 02:34:05;;;;;;;10.82;6.53;;;;;;;9.55;29.25;100232.91;4407013;32;20121;-70
2022/03/23 02:36:32;;;;;;;10.05;6.50;;;;;;;9.59;29.08;100238.78;4406941;32;20163;-70
2022/03/23 02:38:59;;;;;;;17.35;7.10;;;;;;;9.67;28.86;100231.28;4407015;32;20117;-70
2022/03/23 02:41:28;;;;;;;13.65;6.82;;;;;;;9.63;29.08;100242.06;4406945;32;20122;-70
2022/03/23 02:43:55;;;;;;;10.35;6.05;;;;;;;9.61;28.97;100239.53;4407111;32;20101;-70
2022/03/23 02:46:23;;;;;;;12.95;6.22;;;;;;;9.91;28.58;100235.94;4407133;32;20107;-70
2022/03/23 02:48:51;;;;;;;13.13;6.65;;;;;;;9.55;29.32;100237.28;4406845;32;20094;-70
2022/03/23 02:51:18;;;;;;;10.38;6.12;;;;;;;9.31;29.51;100242.25;4406792;32;20110;-70
2022/03/23 03:02:29;;;;;;;;;;;;;;;9.77;29.25;100237.66;4407250;32;20125;-70
2022/03/23 03:04:57;;;;;;;14.63;6.65;;;;;;;9.82;29.05;100228.69;4406866;32;19973;-70
2022/03/23 03:07:24;;;;;;;15.50;6.40;;;;;;;9.29;29.62;100231.88;4406414;32;20143;-70
2022/03/23 03:09:51;;;;;;;15.27;7.15;;;;;;;9.31;29.75;100227.41;4405235;32;20102;-71
2022/03/23 03:12:19;;;;;;;13.55;6.78;;;;;;;9.00;30.27;100234.47;4406723;32;20792;-70
2022/03/23 03:14:46;;;;;;;11.85;6.28;;;;;;;9.00;30.42;100231.84;4406321;32;20117;-70
2022/03/23 03:17:13;;;;;;;12.93;6.87;;;;;;;9.35;30.46;100230.66;4406444;32;20117;-70
2022/03/23 03:19:40;;;;;;;16.45;7.62;;;;;;;10.04;29.35;100236.84;4406427;32;20428;-70
2022/03/23 03:22:09;;;;;;;12.90;6.55;;;;;;;9.21;29.98;100231.50;4406500;32;20116;-70
2022/03/23 03:24:37;;;;;;;14.27;7.00;;;;;;;9.30;30.19;100230.94;4406993;32;20090;-70
2022/03/23 03:27:04;;;;;;;13.13;7.28;;;;;;;9.56;30.08;100231.97;4408497;32;20090;-71
2022/03/23 03:29:31;;;;;;;12.80;6.80;;;;;;;9.12;30.19;100238.13;4407986;32;20098;-70
2022/03/23 03:31:58;;;;;;;16.73;7.18;;;;;;;9.15;30.22;100232.72;4403184;32;20106;-70
2022/03/23 03:34:25;;;;;;;13.23;7.57;;;;;;;9.14;30.30;100230.19;4407491;32;20128;-70
2022/03/23 03:36:52;;;;;;;13.27;7.00;;;;;;;9.11;30.47;100225.12;4407720;32;20128;-70
2022/03/23 03:39:19;;;;;;;11.98;6.82;;;;;;;9.13;30.37;100229.34;4407974;32;20129;-70
2022/03/23 03:41:47;;;;;;;13.23;6.28;;;;;;;9.28;30.15;100226.75;4408510;32;20547;-70
2022/03/23 03:44:14;;;;;;;12.37;6.22;;;;;;;9.66;29.77;100221.78;4408288;32;20090;-70
2022/03/23 03:46:41;;;;;;;14.68;6.65;;;;;;;9.35;30.23;100226.28;4408412;32;20444;-70
2022/03/23 03:49:09;;;;;;;20.08;7.40;;;;;;;9.23;30.33;100221.78;4408641;32;20121;-70
2022/03/23 03:51:36;;;;;;;11.85;6.72;;;;;;;9.18;30.36;100218.62;4408405;32;20085;-70
2022/03/23 03:54:03;;;;;;;15.23;6.80;;;;;;;9.13;30.53;100215.41;4408441;32;20095;-70
2022/03/23 03:56:30;;;;;;;13.82;6.82;;;;;;;9.16;30.52;100212.63;4408304;32;20101;-70
2022/03/23 03:58:57;;;;;;;12.30;6.28;;;;;;;9.19;31.07;100221.13;4408036;32;20106;-70
2022/03/23 04:01:25;;;;;;;14.15;6.93;;;;;;;9.06;30.68;100218.41;4408527;32;20478;-70
2022/03/23 04:03:53;;;;;;;14.98;6.95;;;;;;;9.04;31.24;100217.66;4408617;32;20086;-70
2022/03/23 04:06:20;;;;;;;13.75;7.22;;;;;;;9.27;31.31;100220.69;4408131;32;20512;-70
2022/03/23 04:08:47;;;;;;;13.88;7.45;;;;;;;9.17;30.80;100220.37;4408136;32;20082;-70
2022/03/23 04:11:15;;;;;;;12.68;7.18;;;;;;;9.34;30.66;100232.44;4408276;32;20494;-70
2022/03/23 04:13:42;;;;;;;17.62;7.90;;;;;;;9.32;30.88;100229.06;4408134;32;20090;-70
2022/03/23 04:16:10;;;;;;;13.77;6.37;;;;;;;9.22;31.02;100222.75;4408218;32;20163;-70
2022/03/23 04:18:37;;;;;;;11.35;7.32;;;;;;;9.23;31.17;100219.16;4408250;32;20169;-70
2022/03/23 04:21:05;;;;;;;14.52;7.78;;;;;;;9.33;31.50;100225.53;4408385;32;20580;-70
2022/03/23 04:23:33;;;;;;;14.85;7.68;;;;;;;9.21;31.26;100221.06;4408332;32;20090;-70
2022/03/23 04:26:01;;;;;;;11.70;6.87;;;;;;;9.37;31.03;100216.56;4408522;32;20128;-70
2022/03/23 04:28:28;;;;;;;12.35;6.95;;;;;;;9.48;31.03;100222.91;4406670;32;20128;-70
2022/03/23 04:30:56;;;;;;;13.05;6.50;;;;;;;9.37;31.01;100215.72;4407950;32;20132;-70
2022/03/23 04:33:23;;;;;;;16.10;7.30;;;;;;;9.35;31.59;100212.38;4408407;32;20090;-70
2022/03/23 04:35:50;;;;;;;14.55;7.57;;;;;;;9.35;31.04;100221.03;4407982;32;20112;-70
2022/03/23 04:38:17;;;;;;;13.13;7.53;;;;;;;9.28;31.12;100222.38;4406891;32;20168;-70
2022/03/23 04:40:45;;;;;;;16.95;7.45;;;;;;;9.32;31.29;100231.69;4408124;32;20475;-70
2022/03/23 04:43:12;;;;;;;17.45;6.68;;;;;;;9.37;31.19;100221.81;4408536;32;20090;-70
2022/03/23 04:45:40;;;;;;;14.73;6.82;;;;;;;9.42;31.34;100218.91;4407952;32;20455;-70
2022/03/23 04:48:08;;;;;;;18.52;7.25;;;;;;;9.62;30.71;100224.69;4407882;32;20122;-70
2022/03/23 04:50:35;;;;;;;14.07;7.18;;;;;;;9.58;30.72;100224.03;4407729;32;20102;-70
2022/03/23 04:53:02;;;;;;;15.00;7.03;;;;;;;9.58;30.83;100229.25;4408071;32;20094;-70
2022/03/23 04:55:29;;;;;;;11.88;6.22;;;;;;;9.82;30.48;100223.44;4408367;32;20438;-71
2022/03/23 04:57:56;;;;;;;16.87;7.87;;;;;;;9.57;31.19;100238.06;4407990;32;20125;-70
2022/03/23 05:00:23;;;;;;;20.83;6.78;;;;;;;9.64;31.07;100238.50;4407815;32;20389;-69
2022/03/23 05:02:51;;;;;;;15.68;7.45;;;;;;;9.67;31.20;100233.09;4407641;32;20170;-70
2022/03/23 05:05:18;;;;;;;18.75;7.60;;;;;;;9.84;30.97;100229.41;4407628;32;20473;-70
2022/03/23 05:07:46;;;;;;;12.55;6.18;;;;;;;9.74;30.94;100240.47;4406323;32;20125;-70
2022/03/23 05:10:14;;;;;;;14.68;7.47;;;;;;;9.73;30.67;100241.38;4407513;32;20165;-70
2022/03/23 05:12:43;;;;;;;17.67;6.32;;;;;;;9.52;30.86;100246.19;4406976;32;20116;-70
2022/03/23 05:15:11;;;;;;;13.93;8.13;;;;;;;9.84;30.79;100245.97;4407664;32;20081;-70
2022/03/23 05:17:39;;;;;;;14.77;7.43;;;;;;;9.86;30.61;100244.09;4407273;32;20504;-70
2022/03/23 05:20:07;;;;;;;15.50;6.90;;;;;;;9.61;31.06;100252.62;4407462;32;20478;-70
2022/03/23 05:22:35;;;;;;;16.35;7.30;;;;;;;9.79;30.76;100250.63;4407054;32;20094;-70
2022/03/23 05:25:03;;;;;;;15.10;7.05;;;;;;;9.82;30.86;100258.28;4406826;32;20480;-70
2022/03/23 05:27:35;;;;;;;12.40;6.57;;;;;;;10.16;31.11;100256.19;4406032;32;20171;-70
2022/03/23 05:30:04;;;;;;;16.17;7.60;;;;;;;10.13;30.89;100256.38;4399541;32;20118;-70
2022/03/23 05:32:31;;;;;;;14.50;7.80;;;;;;;9.98;31.09;100254.72;4397469;32;20116;-73
2022/03/23 05:34:58;;;;;;;12.68;7.55;;;;;;;9.94;30.92;100257.53;4400185;32;20112;-73
2022/03/23 05:37:26;;;;;;;17.98;8.27;;;;;;;10.25;30.50;100254.75;4399474;32;20114;-73
2022/03/23 05:39:54;;;;;;;14.30;7.75;;;;;;;10.18;30.47;100254.31;4392497;32;20094;-74
2022/03/23 05:42:21;;;;;;;12.57;6.65;;;;;;;10.27;30.77;100250.25;4396435;32;20681;-73
2022/03/23 05:44:48;;;;;;;16.30;7.22;;;;;;;10.97;30.06;100244.81;4400543;32;20094;-73
2022/03/23 05:47:15;;;;;;;15.73;7.60;;;;;;;10.61;31.92;100248.09;4400547;32;20167;-72
2022/03/23 05:49:42;;;;;;;24.92;8.48;;;;;;;10.44;30.37;100252.66;4404275;32;20125;-71
2022/03/23 05:52:09;;;;;;;14.20;7.28;;;;;;;10.29;30.70;100246.63;4405634;32;20148;-71
2022/03/23 05:54:37;;;;;;;20.45;7.75;;;;;;;10.54;30.46;100241.59;4407125;32;20177;-70
2022/03/23 05:57:04;;;;;;;20.40;7.75;;;;;;;10.16;31.00;100245.72;4404585;32;20493;-70
2022/03/23 05:59:31;;;;;;;12.73;7.70;;;;;;;10.68;30.44;100251.16;4395214;32;20166;-70
2022/03/23 06:01:59;;;;;;;13.10;7.12;;;;;;;10.89;30.09;100243.66;4399684;32;20153;-70
2022/03/23 06:04:27;;;;;;;14.30;7.30;;;;;;;11.00;31.23;100251.63;4396195;32;168871;-70
2022/03/23 06:06:54;;;;;;;21.85;8.15;;;;;;;11.13;30.48;100257.72;4406744;32;20129;-71
2022/03/23 06:09:21;;;;;;;19.15;8.80;;;;;;;10.83;30.27;100258.00;4399708;32;20106;-71
2022/03/23 06:11:49;;;;;;;18.08;7.70;;;;;;;11.02;30.20;100254.97;4398527;32;20436;-71
2022/03/23 06:14:16;;;;;;;20.48;8.55;;;;;;;11.44;30.22;100255.62;4402527;32;20097;-73
2022/03/23 06:16:43;;;;;;;17.17;8.27;;;;;;;11.50;30.57;100255.19;4403774;32;20118;-73
2022/03/23 06:19:13;;;;;;;18.90;7.60;;;;;;;11.34;29.72;100249.34;4398590;32;20569;-71
2022/03/23 06:21:41;;;;;;;22.55;9.15;;;;;;;11.44;31.21;100239.88;4402887;32;20102;-71
2022/03/23 06:24:08;;;;;;;22.87;8.60;;;;;;;11.41;29.51;100252.38;4406388;32;20112;-72
2022/03/23 06:26:36;;;;;;;11.82;7.75;;;;;;;11.60;30.43;100250.16;4399419;32;20168;-71
2022/03/23 06:29:03;;;;;;;13.35;7.00;;;;;;;11.94;29.71;100246.97;4395789;32;20156;-71
2022/03/23 06:31:37;;;;;;;23.60;9.80;;;;;;;11.63;29.88;100255.19;4403446;32;20125;-71
2022/03/23 06:34:04;;;;;;;27.52;7.72;;;;;;;12.15;28.96;100260.34;4404423;32;20082;-71
2022/03/23 06:36:31;;;;;;;29.33;10.23;;;;;;;12.06;29.24;100264.47;4401230;32;20110;-71
2022/03/23 06:38:59;;;;;;;15.82;8.55;;;;;;;11.77;29.45;100259.47;4397996;32;20094;-72
2022/03/23 06:41:26;;;;;;;16.40;6.68;;;;;;;11.80;29.05;100267.13;4398935;32;20102;-71
2022/03/23 06:43:53;;;;;;;16.40;8.20;;;;;;;12.24;28.77;100255.25;4394643;32;20453;-71
2022/03/23 06:46:20;;;;;;;22.85;9.07;;;;;;;12.01;29.58;100263.97;4402793;32;20136;-71
2022/03/23 06:48:48;;;;;;;20.62;6.87;;;;;;;12.54;28.67;100271.56;4402718;32;20094;-72
2022/03/23 06:51:15;;;;;;;20.20;8.00;;;;;;;12.24;28.92;100260.53;4402836;32;20171;-72
2022/03/23 06:53:43;;;;;;;22.25;6.62;;;;;;;12.31;28.19;100260.94;4404787;32;20445;-71
2022/03/23 06:56:10;;;;;;;21.83;7.68;;;;;;;12.65;28.58;100263.69;4405862;32;20102;-71
2022/03/23 06:58:38;;;;;;;41.20;8.30;;;;;;;12.51;29.28;100262.09;4395937;32;20113;-74
2022/03/23 07:01:05;;;;;;;21.30;7.20;;;;;;;12.70;28.34;100261.59;4394538;32;20106;-73
2022/03/23 07:03:32;;;;;;;16.12;6.70;;;;;;;12.69;28.51;100269.59;4395640;32;20086;-75
2022/03/23 07:06:00;;;;;;;25.83;8.38;;;;;;;12.94;28.21;100258.91;4406090;32;20110;-75
2022/03/23 07:11:13;;;;;;;33.28;9.07;;;;;;;12.92;28.11;100270.50;4396516;32;20487;-74
2022/03/23 07:13:40;;;;;;;23.15;8.05;;;;;;;12.77;28.10;100267.22;4400094;32;20468;-76
2022/03/23 07:16:07;;;;;;;19.60;7.57;;;;;;;13.30;28.00;100264.13;4396916;32;20098;-76
2022/03/23 07:18:35;;;;;;;21.42;7.50;;;;;;;13.34;27.75;100270.87;4397280;32;20098;-77
2022/03/23 07:21:04;;;;;;;16.27;7.55;;;;;;;13.47;27.75;100258.44;4397899;32;20106;-75
2022/03/23 07:23:34;;;;;;;39.17;7.30;;;;;;;13.55;27.65;100260.47;4393063;32;20169;-75
2022/03/23 07:26:02;;;;;;;18.83;7.97;;;;;;;13.56;27.93;100259.50;4392968;32;20124;-75
2022/03/23 07:28:31;;;;;;;14.75;7.07;;;;;;;13.45;27.59;100262.12;4398085;32;20145;-74
2022/03/23 07:30:59;;;;;;;16.35;7.55;;;;;;;13.71;27.35;100261.91;4399811;32;20093;-75
2022/03/23 07:33:28;;;;;;;35.28;8.02;;;;;;;13.36;28.00;100263.69;4397957;32;20161;-76
2022/03/23 07:35:56;;;;;;;20.48;8.25;;;;;;;13.64;28.43;100261.53;4391605;32;20117;-76
2022/03/23 07:38:23;;;;;;;11.40;6.97;;;;;;;13.91;27.85;100263.78;4399203;32;20102;-73
2022/03/23 07:40:51;;;;;;;15.00;7.50;;;;;;;13.74;27.70;100256.38;4400885;32;20094;-75
2022/03/23 07:43:18;;;;;;;12.75;6.80;;;;;;;14.05;27.47;100259.22;4391254;32;20130;-73
2022/03/23 07:45:46;;;;;;;21.17;8.48;;;;;;;13.44;27.04;100266.56;4400754;32;20368;-76
2022/03/23 07:48:16;;;;;;;13.15;7.10;;;;;;;13.36;28.26;100260.22;4403768;32;20163;-75
2022/03/23 07:50:43;;;;;;;22.40;8.90;;;;;;;13.91;27.75;100247.16;4399635;32;20262;-75
2022/03/23 07:53:10;;;;;;;19.35;8.77;;;;;;;13.55;27.88;100264.88;4403084;32;20086;-73
2022/03/23 07:55:37;;;;;;;22.60;9.40;;;;;;;13.79;27.90;100259.47;4395661;32;20114;-74
2022/03/23 07:58:05;;;;;;;19.48;9.38;;;;;;;13.90;27.60;100251.59;4395157;32;20106;-73
2022/03/23 08:00:34;;;;;;;22.50;9.88;;;;;;;13.91;27.31;100257.69;4390896;32;20107;-72
2022/03/23 08:03:02;;;;;;;19.80;8.90;;;;;;;14.13;27.32;100251.53;4395231;32;20086;-73
2022/03/23 08:05:30;;;;;;;22.45;8.80;;;;;;;14.38;27.05;100255.66;4391906;32;20105;-74
2022/03/23 08:07:57;;;;;;;21.20;9.52;;;;;;;14.61;26.97;100256.44;4391454;32;20102;-73
2022/03/23 08:10:25;;;;;;;29.27;9.23;;;;;;;14.21;26.70;100254.37;4399485;32;20573;-72
2022/03/23 08:12:53;;;;;;;16.42;8.30;;;;;;;14.57;26.31;100252.34;4394885;32;20098;-72
2022/03/23 08:15:20;;;;;;;22.00;8.90;;;;;;;14.79;26.85;100247.97;4395201;32;20521;-73
2022/03/23 08:17:48;;;;;;;18.30;8.13;;;;;;;14.11;26.75;100253.44;4401102;32;20642;-73
2022/03/23 08:20:35;;;;;;;18.85;9.65;;;;;;;14.41;27.58;100251.94;4397147;32;20102;-72
2022/03/23 08:23:07;;;;;;;35.55;9.35;;;;;;;14.72;26.99;100258.19;4397511;32;20120;-75
2022/03/23 08:25:41;;;;;;;20.60;9.93;;;;;;;15.00;26.86;100255.88;4399173;32;20093;-74
2022/03/23 08:28:09;;;;;;;;;;;;;;;14.85;26.67;100263.28;4393851;32;20110;-73
2022/03/23 08:30:37;;;;;;;17.33;8.88;;;;;;;14.62;26.42;100263.38;4399824;32;20272;-74
2022/03/23 08:33:05;;;;;;;16.05;7.78;;;;;;;14.53;26.90;100266.75;4393018;32;20124;-72
2022/03/23 08:35:35;;;;;;;26.95;8.73;;;;;;;14.92;27.11;100261.81;4385216;32;20177;-73
2022/03/23 08:38:03;;;;;;;17.45;8.93;;;;;;;14.96;26.31;100262.38;4394674;32;20116;-73
2022/03/23 08:40:31;;;;;;;21.02;8.95;;;;;;;15.29;26.02;100265.78;4382422;32;20467;-72
2022/03/23 08:43:11;;;;;;;54.50;9.40;;;;;;;15.65;25.86;100260.94;4889339;27;21168;31
2022/03/23 08:49:08;;;;;;;23.40;9.70;;;;;;;15.83;25.87;100256.72;4378313;32;20162;-70
2022/03/23 08:55:09;;;;;;;16.85;9.05;;;;;;;15.68;25.84;100263.31;4378767;32;20109;-71
2022/03/23 09:01:06;;;;;;;14.98;7.90;;;;;;;15.48;25.48;100265.06;4378873;32;20176;-72
2022/03/23 09:07:04;;;;;;;24.12;8.20;;;;;;;16.23;24.58;100253.22;4379135;32;20497;-71
2022/03/23 09:09:31;;;;;;;20.25;7.50;;;;;;;16.40;24.64;100245.59;4378806;32;20091;-74
2022/03/23 09:11:59;;;;;;;25.67;8.73;;;;;;;16.68;23.73;100254.47;4379157;32;20479;-72
2022/03/23 09:18:00;;;;;;;16.27;8.23;;;;;;;17.30;24.01;100254.13;4379285;32;20154;-72
2022/03/23 09:20:28;;;;;;;16.45;7.97;;;;;;;17.04;23.11;100254.75;4379166;32;20106;-72
2022/03/23 09:22:56;;;;;;;20.90;8.05;;;;;;;17.40;23.62;100248.81;4377951;32;20103;-71
2022/03/23 09:25:24;;;;;;;16.25;8.35;;;;;;;17.24;23.19;100252.06;4378853;32;20171;-73
2022/03/23 09:27:52;;;;;;;20.42;10.05;;;;;;;17.15;23.26;100256.41;4379068;32;20154;-72
2022/03/23 09:33:50;;;;;;;16.08;7.15;;;;;;;16.84;24.23;100244.16;4379104;32;20121;-71
2022/03/23 09:39:48;;;;;;;18.80;7.47;;;;;;;17.18;23.72;100242.88;4379343;32;20136;-72
2022/03/23 09:45:46;;;;;;;11.73;6.55;;;;;;;17.46;22.83;100241.13;4375555;32;20113;-72
2022/03/23 09:48:17;;;;;;;10.93;5.75;;;;;;;17.41;21.50;100238.06;4365332;32;20476;-72
2022/03/23 09:54:14;;;;;;;15.02;6.10;;;;;;;17.37;22.17;100232.22;4379221;32;20121;-72
2022/03/23 09:56:42;;;;;;;18.70;8.50;;;;;;;17.77;23.27;100226.75;4378999;32;20464;-72
2022/03/23 10:02:58;;;;;;;13.62;5.62;;;;;;;17.95;23.40;100226.81;4379042;32;20530;-73
2022/03/23 10:06:10;;;;;;;12.98;6.15;;;;;;;18.07;22.04;100215.84;4378710;32;20118;-73
2022/03/23 10:09:15;;;;;;;11.18;6.12;;;;;;;18.39;21.04;100218.97;4332411;33;20197;-72
2022/03/23 10:15:42;;;;;;;15.13;6.12;;;;;;;18.50;21.03;100225.84;4332232;33;20412;-73
2022/03/23 10:18:47;;;;;;;14.77;6.93;;;;;;;18.42;22.20;100213.34;4332209;33;20119;-73
2022/03/23 10:21:14;;;;;;;12.00;5.28;;;;;;;18.75;21.53;100218.94;4332032;33;20100;-72
2022/03/23 10:23:51;;;;;;;11.65;5.05;;;;;;;18.89;19.77;100213.06;4332049;33;20095;-72
2022/03/23 10:26:18;;;;;;;12.30;5.40;;;;;;;19.14;20.15;100218.56;4332021;33;20449;-72
2022/03/23 10:28:46;;;;;;;12.05;5.35;;;;;;;19.05;19.09;100209.72;4332104;33;20100;-72
2022/03/23 10:31:17;;;;;;;7.75;5.28;;;;;;;18.77;19.74;100207.19;4331884;33;20496;-72
2022/03/23 10:33:56;;;;;;;8.15;4.35;;;;;;;18.33;18.83;100206.31;4332469;33;20153;-72
2022/03/23 10:39:56;;;;;;;11.73;4.53;;;;;;;18.05;19.35;100195.78;4333091;33;20198;-73
2022/03/23 10:45:54;;;;;;;13.48;5.10;;;;;;;18.47;19.48;100199.63;4369679;32;20105;-75
2022/03/23 10:51:56;;;;;;;16.80;6.00;;;;;;;19.08;19.38;100192.63;4380383;32;20121;-75
2022/03/23 10:54:25;;;;;;;12.68;5.28;;;;;;;18.67;19.84;100190.50;4380457;32;20804;-75
2022/03/23 11:00:29;;;;;;;11.00;5.15;;;;;;;19.26;18.32;100188.06;4380235;32;20149;-73
2022/03/23 11:02:57;;;;;;;11.15;5.93;;;;;;;18.69;18.10;100177.09;4380128;32;20483;-73
2022/03/23 11:05:32;;;;;;;9.13;6.60;;;;;;;18.76;18.86;100183.44;4380393;32;20111;-73
2022/03/23 11:08:28;;;;;;;12.90;6.45;;;;;;;18.95;19.49;100175.28;4380333;32;20177;-73
2022/03/23 11:20:08;;;;;;;9.38;5.82;;;;;;;19.24;19.66;100150.22;4380361;32;20593;-71
2022/03/23 11:22:36;;;;;;;9.48;5.65;;;;;;;18.68;21.70;100155.00;4379961;32;20090;-72
2022/03/23 11:25:03;;;;;;;26.75;6.53;;;;;;;19.08;22.08;100158.09;4380092;32;20449;-72
2022/03/23 11:27:31;;;;;;;11.12;6.53;;;;;;;19.06;19.78;100149.44;4379800;32;20099;-72
2022/03/23 11:29:59;;;;;;;13.23;6.65;;;;;;;19.77;19.22;100144.72;4379784;32;20140;-72
2022/03/23 11:32:28;;;;;;;9.32;6.53;;;;;;;19.53;19.12;100154.31;4366488;32;20083;-73
2022/03/23 11:34:57;;;;;;;18.58;6.60;;;;;;;19.11;19.80;100141.84;4380194;32;20091;-73
2022/03/23 11:37:29;;;;;;;11.30;5.47;;;;;;;19.53;21.03;100137.50;4379838;32;20622;-71
2022/03/23 11:39:56;;;;;;;15.60;5.43;;;;;;;19.92;19.85;100135.13;4380327;32;20109;-72
2022/03/23 11:42:24;;;;;;;21.67;6.43;;;;;;;20.25;20.53;100131.69;4379848;32;20479;-72
2022/03/23 11:44:54;;;;;;;15.05;5.72;;;;;;;19.48;19.18;100127.38;4379166;32;20114;-72
2022/03/23 11:47:42;;;;;;;12.02;5.70;;;;;;;20.07;19.20;100126.50;4379806;32;20116;-72
2022/03/23 11:50:33;;;;;;;9.30;5.30;;;;;;;19.28;19.38;100121.50;4366342;32;20150;-70
2022/03/23 11:56:45;;;;;;;9.15;5.45;;;;;;;19.67;20.15;100111.13;4379685;32;20138;-72
2022/03/23 12:02:43;;;;;;;10.73;5.80;;;;;;;20.10;18.53;100107.56;4379701;32;20109;-72
2022/03/23 12:08:48;;;;;;;15.48;5.53;;;;;;;19.54;19.81;100086.84;4379523;32;20169;-70
2022/03/23 12:14:45;;;;;;;11.35;5.70;;;;;;;19.86;17.96;100090.56;4379604;32;20114;-72
2022/03/23 12:20:46;;;;;;;9.60;5.62;;;;;;;20.16;17.79;100074.97;4379629;32;20157;-72
2022/03/23 12:26:53;;;;;;;10.43;4.78;;;;;;;20.55;19.07;100079.56;4379494;32;21004;-72
2022/03/23 12:29:25;;;;;;;10.27;5.32;;;;;;;20.76;19.10;100070.22;4379419;32;20120;-71
2022/03/23 12:32:06;;;;;;;8.27;4.80;;;;;;;21.12;17.84;100056.41;4379477;32;20151;-72
2022/03/23 12:34:34;;;;;;;7.90;4.57;;;;;;;20.75;19.28;100058.75;4379720;32;20111;-72
2022/03/23 12:37:13;;;;;;;11.10;5.05;;;;;;;21.14;18.01;100057.09;4379269;32;20168;-72
2022/03/23 12:43:38;;;;;;;9.27;6.45;;;;;;;21.78;17.78;100048.88;4379338;32;20129;-72
2022/03/23 13:01:39;;;;;;;7.00;4.72;;;;;;;21.61;16.90;100033.00;4379039;32;20451;-72
2022/03/23 13:07:38;;;;;;;8.38;3.72;;;;;;;21.34;17.24;100026.31;4379217;32;20459;-72
2022/03/23 13:13:36;;;;;;;10.27;4.25;;;;;;;21.50;13.99;100019.25;4378982;32;20156;-72
2022/03/23 13:16:17;;;;;;;16.65;4.62;;;;;;;21.23;15.18;100011.56;4378992;32;20090;-72
2022/03/23 13:22:32;;;;;;;9.20;4.00;;;;;;;21.70;14.43;100009.75;4378902;32;20117;-72
2022/03/23 13:28:32;;;;;;;7.05;3.90;;;;;;;20.87;17.22;100003.25;4379220;32;20661;-71
2022/03/23 13:34:34;;;;;;;7.30;4.22;;;;;;;21.57;17.24;99989.00;4379332;32;20153;-71
2022/03/23 13:43:19;;;;;;;13.32;4.60;;;;;;;21.32;15.91;99987.50;4379338;32;20254;-72
2022/03/23 13:43:22;;;;;;;10.45;6.18;;;;;;;21.14;15.48;99985.97;4367935;32;20103;-72
2022/03/23 13:45:53;;;;;;;8.27;4.55;;;;;;;21.55;15.75;99977.72;4379113;32;20098;-72